Time;durP1;ratioP1;P1;durP2;ratioP2;P2;SDS_P1;SDS_P2;PMS_P1;PMS_P2;Temp;Humidity;BMP_temperature;BMP_pressure;BME280_temperature;BME280_humidity;BME280_pressure;Samples;Min_cycle;Max_cycle;Signal;HPM_P1;HPM_P2
2023/09/09 00:00:43;;;;;;;16.03;8.63;;;19.00;98.00;;;;;;5033901;28;20449;-70
2023/09/09 00:03:10;;;;;;;18.20;8.80;;;18.90;98.00;;;;;;5033710;28;21015;-70
2023/09/09 00:05:37;;;;;;;17.33;8.80;;;18.90;98.00;;;;;;5033750;28;20455;-68
2023/09/09 00:08:04;;;;;;;22.63;9.93;;;18.70;98.00;;;;;;5033780;28;20447;-69
2023/09/09 00:10:35;;;;;;;17.23;9.00;;;18.70;98.00;;;;;;5033501;28;20489;-69
2023/09/09 00:13:04;;;;;;;17.10;8.70;;;18.60;98.00;;;;;;5033686;28;20455;-69
2023/09/09 00:15:31;;;;;;;18.43;9.50;;;18.60;98.00;;;;;;5033582;28;20462;-69
2023/09/09 00:17:59;;;;;;;24.00;9.87;;;18.60;98.00;;;;;;5033335;28;20454;-68
2023/09/09 00:20:30;;;;;;;17.97;8.80;;;18.60;98.00;;;;;;5033361;28;20454;-68
2023/09/09 00:22:58;;;;;;;19.00;9.30;;;18.70;98.00;;;;;;5033619;28;20541;-70
2023/09/09 00:25:25;;;;;;;19.80;8.80;;;18.60;98.00;;;;;;5033192;28;20524;-69
2023/09/09 00:27:55;;;;;;;19.77;9.87;;;18.50;98.00;;;;;;5033073;28;20454;-71
2023/09/09 00:30:23;;;;;;;17.73;8.70;;;18.60;98.00;;;;;;5033408;28;20486;-69
2023/09/09 00:32:50;;;;;;;17.10;9.10;;;18.60;98.00;;;;;;5033064;28;20979;-70
2023/09/09 00:35:18;;;;;;;17.80;9.20;;;18.80;98.00;;;;;;5033067;28;20451;-70
2023/09/09 00:37:45;;;;;;;16.90;8.90;;;18.70;98.00;;;;;;5033056;28;20542;-70
2023/09/09 00:40:12;;;;;;;19.33;9.70;;;18.80;98.00;;;;;;5033042;28;20447;-70
2023/09/09 00:42:40;;;;;;;17.00;9.40;;;18.80;98.00;;;;;;5032742;28;20983;-69
2023/09/09 00:45:07;;;;;;;15.90;8.30;;;18.60;98.00;;;;;;5032763;28;20848;-70
2023/09/09 00:47:36;;;;;;;15.13;8.30;;;18.60;98.00;;;;;;5032026;28;20458;-71
2023/09/09 00:50:05;;;;;;;23.63;9.80;;;18.70;98.00;;;;;;5032618;28;20451;-68
2023/09/09 00:52:33;;;;;;;17.50;9.00;;;18.60;98.00;;;;;;5032529;28;20532;-70
2023/09/09 00:55:01;;;;;;;15.27;8.67;;;18.40;98.00;;;;;;5032773;28;20447;-69
2023/09/09 00:57:28;;;;;;;15.33;9.20;;;18.30;98.00;;;;;;5032401;28;20504;-70
2023/09/09 00:59:55;;;;;;;18.63;9.53;;;18.20;98.00;;;;;;5032596;28;20462;-69
2023/09/09 01:02:22;;;;;;;18.33;9.30;;;18.30;98.00;;;;;;5032500;28;20505;-70
2023/09/09 01:04:51;;;;;;;17.70;9.40;;;18.20;98.00;;;;;;5032542;28;20454;-69
2023/09/09 01:07:18;;;;;;;17.67;9.33;;;18.20;98.00;;;;;;5032396;28;20454;-70
2023/09/09 01:09:45;;;;;;;21.80;8.67;;;18.20;98.00;;;;;;5032294;28;20470;-69
2023/09/09 01:12:12;;;;;;;15.53;8.40;;;18.10;98.00;;;;;;5032432;28;20484;-70
2023/09/09 01:14:39;;;;;;;19.37;9.30;;;18.10;98.00;;;;;;5032313;28;20451;-69
2023/09/09 01:17:06;;;;;;;16.43;9.00;;;18.10;98.00;;;;;;5032158;28;20458;-69
2023/09/09 01:19:34;;;;;;;17.53;9.00;;;18.20;98.00;;;;;;5032025;28;20462;-70
2023/09/09 01:22:11;;;;;;;18.60;8.70;;;18.10;98.00;;;;;;5032395;28;20482;-70
2023/09/09 01:24:40;;;;;;;17.73;9.17;;;18.00;98.00;;;;;;5032346;28;20470;-69
2023/09/09 01:27:09;;;;;;;17.73;9.33;;;18.10;98.00;;;;;;5032309;28;20615;-68
2023/09/09 01:29:36;;;;;;;18.60;9.47;;;18.00;98.00;;;;;;5032075;28;20542;-69
2023/09/09 01:32:03;;;;;;;21.80;9.10;;;18.00;98.00;;;;;;5031981;28;20516;-69
2023/09/09 01:34:30;;;;;;;17.87;9.50;;;18.10;98.00;;;;;;5031771;28;20454;-69
2023/09/09 01:36:57;;;;;;;19.90;10.30;;;18.00;98.00;;;;;;5032185;28;20451;-70
2023/09/09 01:39:25;;;;;;;19.90;9.87;;;17.90;98.00;;;;;;5031964;28;20888;-68
2023/09/09 01:41:53;;;;;;;15.07;8.73;;;17.90;98.00;;;;;;5031894;28;20461;-70
2023/09/09 01:44:22;;;;;;;17.30;9.60;;;17.80;98.00;;;;;;5032039;28;20454;-70
2023/09/09 01:46:49;;;;;;;15.40;8.80;;;17.70;98.00;;;;;;5031681;28;20454;-69
2023/09/09 01:49:16;;;;;;;15.37;8.73;;;17.70;98.00;;;;;;5031910;28;20459;-69
2023/09/09 01:51:43;;;;;;;20.43;10.17;;;17.60;98.00;;;;;;5031786;28;20482;-70
2023/09/09 01:54:10;;;;;;;15.60;8.60;;;17.50;98.00;;;;;;5031898;28;20451;-71
2023/09/09 01:56:37;;;;;;;18.30;9.10;;;17.50;98.00;;;;;;5031999;28;20469;-70
2023/09/09 01:59:06;;;;;;;17.37;9.33;;;17.60;98.00;;;;;;5014360;28;20450;-70
2023/09/09 02:01:33;;;;;;;16.10;9.50;;;17.60;98.00;;;;;;5032005;28;20451;-69
2023/09/09 02:04:00;;;;;;;21.40;9.73;;;17.60;98.00;;;;;;5031883;28;20850;-71
2023/09/09 02:06:28;;;;;;;16.87;9.20;;;17.50;98.00;;;;;;5031730;28;20451;-69
2023/09/09 02:08:55;;;;;;;19.97;9.07;;;17.50;98.00;;;;;;5031186;28;20451;-68
2023/09/09 02:11:22;;;;;;;16.70;8.90;;;17.50;98.00;;;;;;5031829;28;20486;-68
2023/09/09 02:13:49;;;;;;;16.30;8.77;;;17.60;98.00;;;;;;5031180;28;20461;-69
2023/09/09 02:16:18;;;;;;;18.77;9.97;;;17.80;98.00;;;;;;5031370;28;20454;-69
2023/09/09 02:18:45;;;;;;;17.17;9.57;;;17.70;98.00;;;;;;5031392;28;20937;-69
2023/09/09 02:21:12;;;;;;;16.20;9.20;;;17.50;98.00;;;;;;5031740;28;20454;-69
2023/09/09 02:23:41;;;;;;;22.50;10.20;;;17.50;98.00;;;;;;5014018;28;20961;-69
2023/09/09 02:26:08;;;;;;;19.13;9.50;;;17.50;98.00;;;;;;5031384;28;20483;-69
2023/09/09 02:28:35;;;;;;;19.07;9.40;;;17.40;98.00;;;;;;5031318;28;20446;-68
2023/09/09 02:31:02;;;;;;;16.90;8.97;;;17.40;98.00;;;;;;5031399;28;20489;-70
2023/09/09 02:33:31;;;;;;;18.50;9.17;;;17.30;98.00;;;;;;5031431;28;20451;-69
2023/09/09 02:36:00;;;;;;;18.33;9.80;;;17.30;98.00;;;;;;5030713;28;20462;-69
2023/09/09 02:38:27;;;;;;;16.10;9.83;;;17.40;98.00;;;;;;5030566;28;20552;-70
2023/09/09 02:40:54;;;;;;;18.67;9.97;;;17.30;98.00;;;;;;5030675;28;20881;-68
2023/09/09 02:43:21;;;;;;;19.57;9.80;;;17.30;98.00;;;;;;5030648;28;20451;-69
2023/09/09 02:45:48;;;;;;;21.07;10.00;;;17.30;98.00;;;;;;5030588;28;20466;-70
2023/09/09 02:48:15;;;;;;;18.50;9.13;;;17.40;98.00;;;;;;5030389;28;20450;-68
2023/09/09 02:50:44;;;;;;;20.73;8.87;;;17.40;98.00;;;;;;5013071;28;20455;-68
2023/09/09 02:53:11;;;;;;;19.87;9.80;;;17.40;98.00;;;;;;5030992;28;20501;-68
2023/09/09 02:55:38;;;;;;;17.70;9.63;;;17.30;98.00;;;;;;5031202;28;20466;-69
2023/09/09 02:58:06;;;;;;;17.47;9.70;;;17.20;98.00;;;;;;5031244;28;20455;-69
2023/09/09 03:00:33;;;;;;;18.00;9.43;;;17.20;98.00;;;;;;5031107;28;20447;-69
2023/09/09 03:03:00;;;;;;;20.13;10.40;;;17.10;98.00;;;;;;4997112;28;20853;-70
2023/09/09 03:05:29;;;;;;;17.67;9.20;;;17.10;98.00;;;;;;5031233;28;20478;-68
2023/09/09 03:07:59;;;;;;;18.43;10.27;;;17.00;98.00;;;;;;5031007;28;20531;-68
2023/09/09 03:10:26;;;;;;;19.63;10.13;;;17.00;98.00;;;;;;5031101;28;20500;-69
2023/09/09 03:12:53;;;;;;;19.00;9.97;;;17.00;98.00;;;;;;5034114;28;20489;-68
2023/09/09 03:15:20;;;;;;;20.27;9.83;;;17.00;98.00;;;;;;5017286;28;20847;-71
2023/09/09 03:17:47;;;;;;;16.20;8.30;;;17.10;98.00;;;;;;5034606;28;20466;-69
2023/09/09 03:20:15;;;;;;;18.50;9.63;;;17.00;98.00;;;;;;5034728;28;20955;-70
2023/09/09 03:22:42;;;;;;;21.33;9.60;;;17.10;98.00;;;;;;5016922;28;20463;-69
2023/09/09 03:25:10;;;;;;;19.80;10.00;;;17.10;98.00;;;;;;5034638;28;20505;-70
2023/09/09 03:27:37;;;;;;;19.20;9.53;;;17.10;98.00;;;;;;5034430;28;20443;-68
2023/09/09 03:30:05;;;;;;;20.77;9.13;;;17.10;98.00;;;;;;5034504;28;20508;-70
2023/09/09 03:32:33;;;;;;;17.10;9.00;;;17.10;98.00;;;;;;5034368;28;21001;-68
2023/09/09 03:35:00;;;;;;;18.33;9.53;;;17.10;98.00;;;;;;5034449;28;20490;-68
2023/09/09 03:37:27;;;;;;;18.53;9.70;;;17.10;98.00;;;;;;5034334;28;20458;-69
2023/09/09 03:39:54;;;;;;;18.97;9.50;;;17.10;98.00;;;;;;5034311;28;20442;-68
2023/09/09 03:42:23;;;;;;;15.93;8.70;;;17.10;98.00;;;;;;5034294;28;20458;-70
2023/09/09 03:44:50;;;;;;;21.80;10.40;;;17.10;98.00;;;;;;5033910;28;20450;-69
2023/09/09 03:47:17;;;;;;;20.07;9.93;;;17.00;98.00;;;;;;5034219;28;20450;-69
2023/09/09 03:49:44;;;;;;;17.47;9.23;;;16.90;98.00;;;;;;5034074;28;20562;-69
2023/09/09 03:52:11;;;;;;;19.40;9.90;;;16.90;98.00;;;;;;5033892;28;20478;-69
2023/09/09 03:54:41;;;;;;;17.20;8.80;;;16.80;98.00;;;;;;5034093;28;20512;-70
2023/09/09 03:57:08;;;;;;;18.30;8.60;;;16.80;98.00;;;;;;5033802;28;20575;-70
2023/09/09 03:59:37;;;;;;;26.50;9.90;;;16.90;98.00;;;;;;5033546;28;20458;-68
2023/09/09 04:02:04;;;;;;;17.13;9.07;;;16.90;98.00;;;;;;5033629;28;20466;-69
2023/09/09 04:04:31;;;;;;;18.27;8.83;;;16.90;98.00;;;;;;5016240;28;20446;-68
2023/09/09 04:06:58;;;;;;;16.03;8.93;;;16.80;98.00;;;;;;5033681;28;20865;-69
2023/09/09 04:09:26;;;;;;;20.57;10.60;;;16.80;98.00;;;;;;5033381;28;20450;-68
2023/09/09 04:11:54;;;;;;;19.93;9.43;;;16.60;98.00;;;;;;5033468;28;20482;-69
2023/09/09 04:14:21;;;;;;;24.60;10.00;;;16.60;98.00;;;;;;4999794;28;20446;-69
2023/09/09 04:16:49;;;;;;;16.70;8.63;;;16.70;98.00;;;;;;5033410;28;20474;-69
2023/09/09 04:19:16;;;;;;;16.50;8.60;;;16.60;98.00;;;;;;5033107;28;20505;-70
2023/09/09 04:21:43;;;;;;;16.10;8.67;;;16.70;98.00;;;;;;5033230;28;20516;-68
2023/09/09 04:24:10;;;;;;;20.23;9.30;;;16.80;98.00;;;;;;5032043;28;20458;-68
2023/09/09 04:26:37;;;;;;;18.50;9.10;;;16.90;98.00;;;;;;5033350;28;20455;-69
2023/09/09 04:29:05;;;;;;;21.83;9.60;;;16.90;98.00;;;;;;5033265;28;20804;-70
2023/09/09 04:31:32;;;;;;;17.63;9.00;;;16.70;98.00;;;;;;5015549;28;20462;-69
2023/09/09 04:34:01;;;;;;;13.87;7.83;;;16.80;98.00;;;;;;5033178;28;20447;-69
2023/09/09 04:36:28;;;;;;;16.53;9.23;;;16.80;98.00;;;;;;5033100;28;20454;-70
2023/09/09 04:38:55;;;;;;;16.33;9.00;;;16.80;98.00;;;;;;5032854;28;20443;-69
2023/09/09 04:41:22;;;;;;;17.73;9.00;;;16.70;98.00;;;;;;5015228;28;20447;-68
2023/09/09 04:43:49;;;;;;;19.80;9.40;;;16.70;98.00;;;;;;5032862;28;20450;-70
2023/09/09 04:46:16;;;;;;;16.37;8.83;;;16.70;98.00;;;;;;5031694;28;20455;-70
2023/09/09 04:48:44;;;;;;;17.70;8.73;;;16.70;98.00;;;;;;5032683;28;20451;-69
2023/09/09 04:51:12;;;;;;;17.80;8.40;;;16.60;98.00;;;;;;4999015;28;20533;-69
2023/09/09 04:53:39;;;;;;;16.80;8.87;;;16.60;98.00;;;;;;5032238;28;20486;-69
2023/09/09 04:56:06;;;;;;;20.13;10.37;;;16.70;98.00;;;;;;5032790;28;20952;-70
2023/09/09 04:58:33;;;;;;;20.10;9.57;;;16.70;98.00;;;;;;5032716;28;20944;-69
2023/09/09 05:01:00;;;;;;;17.27;8.90;;;16.80;98.00;;;;;;5032696;28;20458;-68
2023/09/09 05:03:27;;;;;;;19.10;9.10;;;16.70;98.00;;;;;;5014750;28;20473;-68
2023/09/09 05:05:54;;;;;;;18.97;10.10;;;16.70;98.00;;;;;;5032582;28;20451;-70
2023/09/09 05:08:23;;;;;;;16.93;9.40;;;16.70;98.00;;;;;;5032656;28;20529;-69
2023/09/09 05:10:50;;;;;;;17.80;9.63;;;16.70;98.00;;;;;;5032430;28;20457;-68
2023/09/09 05:13:17;;;;;;;16.60;9.13;;;16.80;98.00;;;;;;5032329;28;20510;-69
2023/09/09 05:15:44;;;;;;;19.07;8.83;;;16.80;98.00;;;;;;5032465;28;20447;-69
2023/09/09 05:18:10;;;;;;;29.60;10.10;;;16.90;98.00;;;;;;5032407;28;20459;-71
2023/09/09 05:20:37;;;;;;;20.67;9.20;;;16.90;98.00;;;;;;5032367;28;20925;-68
2023/09/09 05:23:04;;;;;;;15.40;8.83;;;16.90;98.00;;;;;;5032452;28;20447;-70
2023/09/09 05:25:32;;;;;;;16.67;8.43;;;17.00;98.00;;;;;;5032401;28;20505;-70
2023/09/09 05:28:00;;;;;;;18.40;9.27;;;16.90;98.00;;;;;;5032599;28;20458;-69
2023/09/09 05:30:27;;;;;;;18.83;8.33;;;17.00;98.00;;;;;;5032416;28;20458;-69
2023/09/09 05:32:54;;;;;;;19.80;9.53;;;17.00;98.00;;;;;;5031865;28;20490;-68
2023/09/09 05:35:21;;;;;;;17.13;8.60;;;17.10;98.00;;;;;;5031932;28;20446;-69
2023/09/09 05:37:51;;;;;;;15.30;8.50;;;17.10;98.00;;;;;;5031674;28;20447;-68
2023/09/09 05:40:19;;;;;;;16.17;8.37;;;17.10;98.00;;;;;;5032116;28;20458;-68
2023/09/09 05:42:48;;;;;;;15.37;8.20;;;17.20;98.00;;;;;;5032154;28;20473;-69
2023/09/09 05:45:16;;;;;;;19.40;10.17;;;17.10;98.00;;;;;;5031874;28;20513;-69
2023/09/09 05:47:44;;;;;;;18.00;8.80;;;17.10;98.00;;;;;;5031514;28;20675;-69
2023/09/09 05:50:12;;;;;;;19.60;8.90;;;17.10;98.00;;;;;;5031761;28;20451;-68
2023/09/09 05:52:40;;;;;;;17.33;9.00;;;17.20;98.00;;;;;;5014259;28;20980;-68
2023/09/09 05:55:08;;;;;;;17.10;8.87;;;17.10;98.00;;;;;;5031825;28;20454;-70
2023/09/09 05:57:35;;;;;;;19.03;9.00;;;17.10;98.00;;;;;;5010320;28;20454;-68
2023/09/09 06:00:05;;;;;;;19.90;9.07;;;17.20;98.00;;;;;;5012004;28;20827;-69
2023/09/09 06:02:32;;;;;;;18.93;9.30;;;17.10;98.00;;;;;;5011913;28;20471;-69
2023/09/09 06:04:59;;;;;;;14.93;7.90;;;17.20;98.00;;;;;;5011898;28;20501;-68
2023/09/09 06:07:26;;;;;;;18.53;9.07;;;17.10;98.00;;;;;;5011802;28;21012;-69
2023/09/09 06:09:56;;;;;;;15.63;9.43;;;17.20;98.00;;;;;;5011678;28;20447;-69
2023/09/09 06:12:23;;;;;;;17.90;9.00;;;17.20;98.00;;;;;;5011954;28;20491;-69
2023/09/09 06:14:50;;;;;;;16.93;8.80;;;17.20;98.00;;;;;;5011586;28;20456;-70
2023/09/09 06:17:18;;;;;;;18.23;8.90;;;17.50;98.00;;;;;;5012031;28;20459;-68
2023/09/09 06:19:45;;;;;;;20.27;9.13;;;17.70;98.00;;;;;;5011767;28;20460;-68
2023/09/09 06:22:12;;;;;;;18.43;8.73;;;17.90;98.00;;;;;;5011869;28;20452;-70
2023/09/09 06:24:40;;;;;;;16.00;8.93;;;18.00;98.00;;;;;;5011782;28;20964;-68
2023/09/09 06:27:07;;;;;;;18.20;9.40;;;18.10;98.00;;;;;;5011839;28;20468;-70
2023/09/09 06:29:34;;;;;;;17.27;8.50;;;18.20;98.00;;;;;;4994428;28;20459;-69
2023/09/09 06:32:03;;;;;;;18.00;9.47;;;18.10;98.00;;;;;;5011857;28;20526;-70
2023/09/09 06:34:31;;;;;;;18.07;8.83;;;18.30;98.00;;;;;;5011866;28;20462;-69
2023/09/09 06:36:58;;;;;;;20.10;9.70;;;18.30;98.00;;;;;;5011686;28;20451;-68
2023/09/09 06:39:25;;;;;;;16.70;9.40;;;18.30;98.00;;;;;;5011870;28;20960;-69
2023/09/09 06:41:52;;;;;;;21.87;9.63;;;18.30;98.00;;;;;;5011786;28;20510;-68
2023/09/09 06:44:20;;;;;;;22.83;9.70;;;18.40;98.00;;;;;;5011842;28;20451;-68
2023/09/09 06:46:47;;;;;;;17.03;9.07;;;18.40;98.00;;;;;;5013375;28;20447;-68
2023/09/09 06:49:14;;;;;;;16.17;9.70;;;18.50;98.00;;;;;;4997809;28;20451;-68
2023/09/09 06:51:43;;;;;;;16.90;9.20;;;18.60;98.00;;;;;;5014724;28;20459;-66
2023/09/09 06:54:10;;;;;;;17.27;9.17;;;18.50;98.00;;;;;;5014688;28;20523;-65
2023/09/09 06:56:37;;;;;;;19.37;9.20;;;18.60;98.00;;;;;;5014806;28;20851;-65
2023/09/09 06:59:04;;;;;;;16.40;9.00;;;18.60;98.00;;;;;;5014486;28;20447;-66
2023/09/09 07:01:31;;;;;;;16.23;9.00;;;18.60;98.00;;;;;;5014598;28;20885;-66
2023/09/09 07:03:58;;;;;;;16.20;8.83;;;18.70;98.00;;;;;;5014406;28;20469;-66
2023/09/09 07:06:26;;;;;;;16.53;8.50;;;18.70;98.00;;;;;;5014531;28;20955;-66
2023/09/09 07:08:55;;;;;;;17.97;8.70;;;18.90;98.00;;;;;;4997164;28;20467;-66
2023/09/09 07:11:22;;;;;;;20.30;9.47;;;19.10;98.00;;;;;;5014726;28;20455;-66
2023/09/09 07:13:49;;;;;;;16.77;9.73;;;19.20;98.00;;;;;;5014391;28;20491;-66
2023/09/09 07:16:16;;;;;;;14.53;8.00;;;19.40;98.00;;;;;;5014329;28;20463;-66
2023/09/09 07:18:43;;;;;;;21.73;9.57;;;19.40;98.00;;;;;;5014362;28;20457;-66
2023/09/09 07:21:10;;;;;;;18.57;9.03;;;19.40;98.00;;;;;;5013888;28;20459;-66
2023/09/09 07:23:38;;;;;;;18.27;9.07;;;19.40;98.00;;;;;;5014071;28;20455;-66
2023/09/09 07:26:07;;;;;;;16.97;8.57;;;19.50;98.00;;;;;;5013752;28;20451;-66
2023/09/09 07:28:34;;;;;;;16.73;9.20;;;19.60;98.00;;;;;;5014026;28;20679;-66
2023/09/09 07:31:03;;;;;;;14.80;8.30;;;19.70;98.00;;;;;;5014039;28;20530;-66
2023/09/09 07:33:30;;;;;;;17.83;8.77;;;19.80;98.00;;;;;;5013914;28;20483;-66
2023/09/09 07:35:57;;;;;;;15.37;8.57;;;19.90;98.00;;;;;;5013777;28;20535;-66
2023/09/09 07:38:24;;;;;;;17.60;9.27;;;20.10;98.00;;;;;;4996499;28;20463;-66
2023/09/09 07:41:01;;;;;;;16.03;9.10;;;20.20;98.00;;;;;;5014045;28;20505;-66
2023/09/09 07:43:29;;;;;;;16.57;8.90;;;20.20;98.00;;;;;;5020459;28;20737;-66
2023/09/09 07:45:56;;;;;;;17.90;9.67;;;20.50;98.00;;;;;;5033554;28;20815;-66
2023/09/09 07:48:23;;;;;;;16.70;8.73;;;20.60;98.00;;;;;;5033631;28;20457;-66
2023/09/09 07:50:52;;;;;;;19.57;10.13;;;20.80;98.00;;;;;;5033625;28;20925;-66
2023/09/09 07:53:20;;;;;;;16.67;9.37;;;20.80;98.00;;;;;;5015699;28;20512;-66
2023/09/09 07:55:49;;;;;;;19.00;9.70;;;20.90;98.00;;;;;;5033276;28;20450;-66
2023/09/09 07:58:16;;;;;;;18.77;9.03;;;21.00;98.00;;;;;;5032931;28;20557;-66
2023/09/09 08:00:45;;;;;;;18.17;10.10;;;21.10;98.00;;;;;;5033078;28;20451;-66
2023/09/09 08:03:12;;;;;;;16.60;8.77;;;21.20;98.00;;;;;;5033076;28;20466;-66
2023/09/09 08:05:41;;;;;;;18.47;10.73;;;21.30;98.00;;;;;;5033021;28;20461;-66
2023/09/09 08:08:08;;;;;;;18.70;9.67;;;21.40;98.00;;;;;;5032885;28;21031;-66
2023/09/09 08:10:36;;;;;;;19.60;9.97;;;21.50;98.00;;;;;;5033173;28;20508;-67
2023/09/09 08:13:03;;;;;;;18.60;9.40;;;21.70;98.00;;;;;;5015293;28;20494;-66
2023/09/09 08:15:30;;;;;;;20.90;10.70;;;22.00;98.00;;;;;;5015002;28;20996;-66
2023/09/09 08:17:59;;;;;;;17.97;10.07;;;22.10;98.00;;;;;;5032978;28;20447;-66
2023/09/09 08:20:26;;;;;;;17.03;9.40;;;22.20;98.00;;;;;;5032802;28;20993;-66
2023/09/09 08:22:53;;;;;;;17.87;9.00;;;22.40;98.00;;;;;;5033047;28;20463;-66
2023/09/09 08:25:21;;;;;;;21.37;10.43;;;22.50;98.00;;;;;;5015181;28;20450;-66
2023/09/09 08:27:48;;;;;;;16.83;9.23;;;22.60;98.00;;;;;;5032667;28;20517;-66
2023/09/09 08:30:17;;;;;;;18.70;9.40;;;22.70;98.00;;;;;;5032595;28;20447;-66
2023/09/09 08:32:44;;;;;;;15.50;9.40;;;22.90;98.00;;;;;;5032557;28;20477;-66
2023/09/09 08:35:12;;;;;;;19.00;10.50;;;23.00;98.00;;;;;;5017470;28;20510;-66
2023/09/09 08:37:39;;;;;;;18.17;9.87;;;23.10;98.00;;;;;;5026042;28;20447;-66
2023/09/09 08:40:08;;;;;;;18.90;10.30;;;23.20;98.00;;;;;;5032409;28;20463;-66
2023/09/09 08:42:47;;;;;;;20.00;10.83;;;23.40;98.00;;;;;;5032474;28;20462;-66
2023/09/09 08:45:25;;;;;;;16.37;9.50;;;23.60;98.00;;;;;;5032462;28;20446;-66
2023/09/09 08:47:56;;;;;;;15.70;9.23;;;23.70;98.00;;;;;;5032755;28;20451;-67
2023/09/09 08:50:25;;;;;;;19.23;10.37;;;23.80;98.00;;;;;;5032277;28;20465;-66
2023/09/09 08:52:54;;;;;;;19.30;10.10;;;24.00;98.00;;;;;;5032347;28;20447;-66
2023/09/09 08:55:22;;;;;;;18.70;10.57;;;24.20;98.00;;;;;;5032094;28;20486;-66
2023/09/09 08:57:49;;;;;;;17.40;9.97;;;24.40;98.00;;;;;;5032059;28;20454;-67
2023/09/09 09:00:18;;;;;;;19.93;10.20;;;24.50;98.00;;;;;;5032026;28;20976;-66
2023/09/09 09:02:45;;;;;;;15.47;9.60;;;24.70;98.00;;;;;;5031637;28;20467;-67
2023/09/09 09:05:15;;;;;;;17.40;9.13;;;24.80;98.00;;;;;;5031976;28;20530;-67
2023/09/09 09:07:44;;;;;;;19.20;9.97;;;24.90;98.00;;;;;;5031876;28;20517;-67
2023/09/09 09:10:11;;;;;;;15.87;9.47;;;25.00;98.00;;;;;;5031142;28;20446;-67
2023/09/09 09:12:42;;;;;;;16.90;9.47;;;25.10;98.00;;;;;;5031816;28;20458;-67
2023/09/09 09:15:11;;;;;;;18.43;8.97;;;25.20;98.00;;;;;;5031313;28;20526;-67
2023/09/09 09:17:40;;;;;;;16.60;9.57;;;25.50;98.00;;;;;;5014426;28;20997;-67
2023/09/09 09:20:24;;;;;;;15.40;8.77;;;25.60;98.00;;;;;;5031666;28;20443;-67
2023/09/09 09:22:53;;;;;;;20.13;9.23;;;25.80;98.00;;;;;;5014200;28;20542;-67
2023/09/09 09:25:21;;;;;;;17.13;9.40;;;25.90;98.00;;;;;;5031623;28;20956;-67
2023/09/09 09:27:48;;;;;;;16.83;9.30;;;26.00;98.00;;;;;;5031549;28;20463;-67
2023/09/09 09:30:15;;;;;;;15.67;9.00;;;26.20;98.00;;;;;;5031589;28;20492;-67
2023/09/09 09:32:43;;;;;;;15.70;9.10;;;26.30;98.00;;;;;;5031499;28;20819;-66
2023/09/09 09:35:31;;;;;;;16.67;10.17;;;26.40;98.00;;;;;;5031516;28;20887;-65
2023/09/09 09:38:01;;;;;;;16.17;9.70;;;26.50;98.00;;;;;;5031499;28;20451;-65
2023/09/09 09:40:33;;;;;;;17.00;9.50;;;26.50;98.00;;;;;;5031631;28;20524;-65
2023/09/09 09:43:00;;;;;;;14.90;8.83;;;26.60;98.00;;;;;;5030147;28;20542;-68
2023/09/09 09:45:29;;;;;;;16.70;9.70;;;26.60;98.00;;;;;;5031568;28;20454;-68
2023/09/09 09:47:58;;;;;;;15.97;9.83;;;26.80;98.00;;;;;;5031485;28;20457;-67
2023/09/09 09:50:28;;;;;;;21.73;9.33;;;27.00;98.00;;;;;;5031812;28;20458;-68
2023/09/09 09:53:01;;;;;;;16.97;10.40;;;27.10;98.00;;;;;;5031983;28;20953;-67
2023/09/09 09:55:30;;;;;;;16.23;9.37;;;27.30;98.00;;;;;;5031445;28;20451;-67
2023/09/09 09:57:58;;;;;;;15.40;9.07;;;27.50;98.00;;;;;;5031906;28;20509;-67
2023/09/09 10:00:26;;;;;;;17.93;9.80;;;27.80;98.00;;;;;;5031899;28;20454;-67
2023/09/09 10:02:55;;;;;;;16.97;9.27;;;28.00;98.00;;;;;;5031723;28;20458;-67
2023/09/09 10:05:23;;;;;;;16.77;9.87;;;28.10;98.00;;;;;;5013136;28;20861;-65
2023/09/09 10:07:53;;;;;;;16.30;9.60;;;28.20;98.00;;;;;;5031690;28;20466;-64
2023/09/09 10:10:24;;;;;;;14.20;8.70;;;28.40;98.00;;;;;;5031838;28;20482;-65
2023/09/09 10:13:00;;;;;;;16.73;8.97;;;28.60;98.00;;;;;;5014308;28;20498;-65
2023/09/09 10:15:30;;;;;;;14.73;8.60;;;28.70;98.00;;;;;;5031731;28;20487;-65
2023/09/09 10:18:00;;;;;;;13.47;8.73;;;28.90;98.00;;;;;;5031843;28;20486;-65
2023/09/09 10:20:29;;;;;;;13.80;8.80;;;29.10;98.00;;;;;;5032929;28;20541;-65
2023/09/09 10:22:59;;;;;;;15.10;8.40;;;29.10;98.00;;;;;;5035842;28;20453;-65
2023/09/09 10:25:28;;;;;;;15.13;9.33;;;29.20;98.00;;;;;;5035736;28;20450;-66
2023/09/09 10:27:56;;;;;;;15.30;8.80;;;29.20;98.00;;;;;;5035360;28;20509;-65
2023/09/09 10:30:24;;;;;;;15.40;8.20;;;29.20;98.00;;;;;;5035754;28;20450;-65
2023/09/09 10:32:51;;;;;;;15.60;9.00;;;29.40;98.00;;;;;;5035215;28;20455;-66
2023/09/09 10:35:20;;;;;;;16.83;9.07;;;29.50;98.00;;;;;;5035202;28;20876;-64
2023/09/09 10:37:50;;;;;;;15.60;8.60;;;29.70;98.00;;;;;;5017721;28;20458;-65
2023/09/09 10:40:19;;;;;;;12.87;8.03;;;29.90;98.00;;;;;;5035423;28;20431;-65
2023/09/09 10:42:48;;;;;;;12.83;7.80;;;29.90;97.80;;;;;;5035140;28;20455;-64
2023/09/09 10:45:26;;;;;;;14.40;8.57;;;30.10;98.00;;;;;;5034981;28;20485;-64
2023/09/09 10:47:56;;;;;;;10.70;6.90;;;30.20;98.00;;;;;;5035140;28;20446;-64
2023/09/09 10:50:24;;;;;;;14.83;7.80;;;30.50;98.00;;;;;;5017725;28;20446;-64
2023/09/09 10:53:14;;;;;;;14.53;8.30;;;30.60;98.00;;;;;;5034996;28;20500;-64
2023/09/09 10:55:41;;;;;;;12.67;7.73;;;30.80;98.00;;;;;;5034466;28;20984;-65
2023/09/09 10:58:09;;;;;;;13.10;7.33;;;30.90;96.50;;;;;;5034870;28;20455;-64
2023/09/09 11:00:38;;;;;;;10.73;6.93;;;31.10;96.60;;;;;;5034393;28;20462;-64
2023/09/09 11:03:17;;;;;;;13.10;7.70;;;31.20;94.50;;;;;;5034691;28;20560;-65
2023/09/09 11:06:05;;;;;;;12.90;7.17;;;31.40;93.60;;;;;;5034617;28;21102;-65
2023/09/09 11:08:35;;;;;;;10.50;7.23;;;31.70;94.50;;;;;;5034617;28;20465;-65
2023/09/09 11:11:14;;;;;;;12.83;7.53;;;31.70;92.50;;;;;;5034627;28;20834;-64
2023/09/09 11:13:53;;;;;;;12.07;7.27;;;31.80;94.80;;;;;;5034496;28;20450;-64
2023/09/09 11:16:28;;;;;;;11.73;7.10;;;32.10;94.20;;;;;;5034717;28;20457;-67
2023/09/09 11:18:56;;;;;;;10.70;7.00;;;32.20;91.10;;;;;;5034454;28;20501;-68
2023/09/09 11:21:24;;;;;;;11.37;7.30;;;32.30;90.90;;;;;;5034604;28;20825;-66
2023/09/09 11:23:52;;;;;;;11.20;7.20;;;32.30;90.10;;;;;;5034434;28;20450;-68
2023/09/09 11:26:21;;;;;;;10.53;7.00;;;32.30;90.40;;;;;;5034542;28;20500;-67
2023/09/09 11:28:50;;;;;;;14.20;7.67;;;32.50;89.40;;;;;;5034369;28;20454;-67
2023/09/09 11:31:18;;;;;;;14.33;7.93;;;32.50;91.40;;;;;;5034479;28;20466;-66
2023/09/09 11:33:45;;;;;;;13.93;8.63;;;32.60;91.80;;;;;;5033765;28;20454;-68
2023/09/09 11:36:16;;;;;;;12.67;7.73;;;32.70;90.00;;;;;;5034524;28;20461;-68
2023/09/09 11:38:44;;;;;;;15.13;7.70;;;32.80;90.60;;;;;;5034226;28;20566;-70
2023/09/09 11:41:18;;;;;;;15.73;7.80;;;33.00;90.20;;;;;;5034440;28;20466;-65
2023/09/09 11:43:46;;;;;;;11.60;7.43;;;33.10;89.00;;;;;;5034312;28;20517;-65
2023/09/09 11:46:14;;;;;;;15.03;8.00;;;33.20;89.10;;;;;;5016849;28;20500;-64
2023/09/09 11:48:41;;;;;;;8.20;6.00;;;33.10;89.20;;;;;;5034135;28;20959;-67
2023/09/09 11:51:08;;;;;;;11.47;7.00;;;33.20;87.80;;;;;;5034238;28;20466;-67
2023/09/09 11:53:36;;;;;;;11.03;7.00;;;33.20;85.60;;;;;;5016511;28;20454;-68
2023/09/09 11:56:03;;;;;;;11.57;7.13;;;33.10;89.30;;;;;;5034160;28;20495;-68
2023/09/09 11:58:40;;;;;;;12.30;6.40;;;33.10;90.20;;;;;;5033968;28;21046;-66
2023/09/09 12:01:07;;;;;;;12.67;7.70;;;33.30;88.30;;;;;;5033949;28;20501;-65
2023/09/09 12:03:36;;;;;;;13.10;8.13;;;33.30;88.60;;;;;;5033973;28;20844;-65
2023/09/09 12:06:06;;;;;;;14.70;8.30;;;33.30;91.50;;;;;;5033522;28;20505;-65
2023/09/09 12:08:33;;;;;;;14.40;7.60;;;33.20;90.30;;;;;;5033634;28;20451;-66
2023/09/09 12:11:04;;;;;;;12.57;7.80;;;33.00;89.20;;;;;;5033750;28;20459;-65
2023/09/09 12:13:32;;;;;;;12.67;8.30;;;33.10;89.00;;;;;;5033224;28;20454;-65
2023/09/09 12:15:59;;;;;;;18.20;8.10;;;33.20;91.70;;;;;;5033358;28;20984;-65
2023/09/09 12:18:26;;;;;;;13.93;8.10;;;33.00;92.70;;;;;;5033397;28;20454;-66
2023/09/09 12:21:02;;;;;;;10.83;7.47;;;33.30;89.20;;;;;;5033370;28;20451;-65
2023/09/09 12:23:30;;;;;;;13.00;7.77;;;33.60;88.30;;;;;;5032904;28;20469;-65
2023/09/09 12:25:58;;;;;;;11.33;7.80;;;33.70;88.30;;;;;;5033220;28;20994;-66
2023/09/09 12:28:25;;;;;;;14.10;7.50;;;33.70;86.80;;;;;;5033272;28;20509;-66
2023/09/09 12:30:52;;;;;;;9.50;6.67;;;33.50;86.20;;;;;;5033156;28;20458;-66
2023/09/09 12:33:19;;;;;;;11.43;6.87;;;33.50;87.30;;;;;;5033217;28;20483;-66
2023/09/09 12:35:48;;;;;;;14.00;6.10;;;33.50;85.70;;;;;;5032811;28;20482;-65
2023/09/09 12:38:17;;;;;;;13.83;6.10;;;33.40;85.40;;;;;;5033055;28;20856;-66
2023/09/09 12:40:51;;;;;;;17.60;6.90;;;33.50;87.80;;;;;;5032968;28;20459;-66